sensor_id;sensor_type;location;lat;lon;timestamp;P1;durP1;ratioP1;P2;durP2;ratioP2
27794;SDS011;15176;50.844;4.412;2023-07-28T00:00:09;6.18;;;3.53;;
27794;SDS011;15176;50.844;4.412;2023-07-28T00:02:35;5.75;;;3.38;;
27794;SDS011;15176;50.844;4.412;2023-07-28T00:05:00;8.95;;;3.90;;
27794;SDS011;15176;50.844;4.412;2023-07-28T00:07:26;6.13;;;3.22;;
27794;SDS011;15176;50.844;4.412;2023-07-28T00:09:52;6.20;;;3.58;;
27794;SDS011;15176;50.844;4.412;2023-07-28T00:12:18;9.55;;;3.85;;
27794;SDS011;15176;50.844;4.412;2023-07-28T00:14:44;6.53;;;3.85;;
27794;SDS011;15176;50.844;4.412;2023-07-28T00:17:10;6.63;;;3.80;;
27794;SDS011;15176;50.844;4.412;2023-07-28T00:19:36;6.10;;;3.58;;
27794;SDS011;15176;50.844;4.412;2023-07-28T00:22:01;6.40;;;3.28;;
27794;SDS011;15176;50.844;4.412;2023-07-28T00:24:28;11.52;;;3.63;;
27794;SDS011;15176;50.844;4.412;2023-07-28T00:26:54;6.68;;;3.72;;
27794;SDS011;15176;50.844;4.412;2023-07-28T00:29:19;8.57;;;3.42;;
27794;SDS011;15176;50.844;4.412;2023-07-28T00:31:45;7.93;;;4.05;;
27794;SDS011;15176;50.844;4.412;2023-07-28T00:34:11;9.13;;;4.22;;
27794;SDS011;15176;50.844;4.412;2023-07-28T00:36:36;7.22;;;3.80;;
27794;SDS011;15176;50.844;4.412;2023-07-28T00:39:02;6.90;;;3.75;;
27794;SDS011;15176;50.844;4.412;2023-07-28T00:41:28;5.30;;;3.15;;
27794;SDS011;15176;50.844;4.412;2023-07-28T00:43:54;6.03;;;3.65;;
27794;SDS011;15176;50.844;4.412;2023-07-28T00:46:19;7.80;;;3.92;;
27794;SDS011;15176;50.844;4.412;2023-07-28T00:48:47;6.68;;;3.33;;
27794;SDS011;15176;50.844;4.412;2023-07-28T00:51:12;5.85;;;3.50;;
27794;SDS011;15176;50.844;4.412;2023-07-28T00:53:38;6.13;;;3.80;;
27794;SDS011;15176;50.844;4.412;2023-07-28T00:56:04;6.55;;;3.92;;
27794;SDS011;15176;50.844;4.412;2023-07-28T00:58:31;6.47;;;4.05;;
27794;SDS011;15176;50.844;4.412;2023-07-28T01:00:56;8.80;;;4.20;;
27794;SDS011;15176;50.844;4.412;2023-07-28T01:03:22;6.93;;;4.13;;
27794;SDS011;15176;50.844;4.412;2023-07-28T01:06:02;9.88;;;4.28;;
27794;SDS011;15176;50.844;4.412;2023-07-28T01:08:38;8.25;;;4.32;;
27794;SDS011;15176;50.844;4.412;2023-07-28T01:11:12;6.25;;;4.28;;
27794;SDS011;15176;50.844;4.412;2023-07-28T01:13:42;8.13;;;4.75;;
27794;SDS011;15176;50.844;4.412;2023-07-28T01:16:08;7.68;;;4.93;;
27794;SDS011;15176;50.844;4.412;2023-07-28T01:18:34;9.18;;;4.82;;
27794;SDS011;15176;50.844;4.412;2023-07-28T01:21:01;9.65;;;4.70;;
27794;SDS011;15176;50.844;4.412;2023-07-28T01:26:12;9.43;;;4.55;;
27794;SDS011;15176;50.844;4.412;2023-07-28T01:28:41;11.02;;;4.90;;
27794;SDS011;15176;50.844;4.412;2023-07-28T01:31:08;9.88;;;4.90;;
27794;SDS011;15176;50.844;4.412;2023-07-28T01:33:35;9.68;;;4.68;;
27794;SDS011;15176;50.844;4.412;2023-07-28T01:36:01;9.15;;;4.80;;
27794;SDS011;15176;50.844;4.412;2023-07-28T01:38:27;11.80;;;5.18;;
27794;SDS011;15176;50.844;4.412;2023-07-28T01:40:53;9.95;;;4.90;;
27794;SDS011;15176;50.844;4.412;2023-07-28T01:43:19;8.82;;;5.20;;
27794;SDS011;15176;50.844;4.412;2023-07-28T01:45:45;8.55;;;4.93;;
27794;SDS011;15176;50.844;4.412;2023-07-28T01:48:11;10.35;;;4.82;;
27794;SDS011;15176;50.844;4.412;2023-07-28T01:50:37;9.45;;;5.32;;
27794;SDS011;15176;50.844;4.412;2023-07-28T01:53:03;8.75;;;5.47;;
27794;SDS011;15176;50.844;4.412;2023-07-28T01:55:31;11.23;;;5.32;;
27794;SDS011;15176;50.844;4.412;2023-07-28T01:57:58;8.30;;;4.95;;
27794;SDS011;15176;50.844;4.412;2023-07-28T02:00:25;8.30;;;5.10;;
27794;SDS011;15176;50.844;4.412;2023-07-28T02:02:51;8.10;;;5.38;;
27794;SDS011;15176;50.844;4.412;2023-07-28T02:05:19;10.63;;;5.88;;
27794;SDS011;15176;50.844;4.412;2023-07-28T02:07:44;12.57;;;6.30;;
27794;SDS011;15176;50.844;4.412;2023-07-28T02:10:10;10.65;;;5.13;;
27794;SDS011;15176;50.844;4.412;2023-07-28T02:12:36;8.73;;;5.47;;
27794;SDS011;15176;50.844;4.412;2023-07-28T02:15:03;13.52;;;6.97;;
27794;SDS011;15176;50.844;4.412;2023-07-28T02:17:30;13.18;;;6.68;;
27794;SDS011;15176;50.844;4.412;2023-07-28T02:19:55;12.77;;;7.35;;
27794;SDS011;15176;50.844;4.412;2023-07-28T02:22:21;12.98;;;6.60;;
27794;SDS011;15176;50.844;4.412;2023-07-28T02:24:47;11.82;;;6.68;;
27794;SDS011;15176;50.844;4.412;2023-07-28T02:27:12;14.43;;;6.78;;
27794;SDS011;15176;50.844;4.412;2023-07-28T02:29:38;11.88;;;6.72;;
27794;SDS011;15176;50.844;4.412;2023-07-28T02:32:04;13.00;;;7.03;;
27794;SDS011;15176;50.844;4.412;2023-07-28T02:34:30;10.77;;;6.47;;
27794;SDS011;15176;50.844;4.412;2023-07-28T02:36:55;11.20;;;6.75;;
27794;SDS011;15176;50.844;4.412;2023-07-28T02:39:22;13.20;;;6.57;;
27794;SDS011;15176;50.844;4.412;2023-07-28T02:41:47;12.00;;;6.10;;
27794;SDS011;15176;50.844;4.412;2023-07-28T02:44:13;10.73;;;6.43;;
27794;SDS011;15176;50.844;4.412;2023-07-28T02:46:39;14.35;;;6.70;;
27794;SDS011;15176;50.844;4.412;2023-07-28T02:49:04;11.25;;;6.53;;
27794;SDS011;15176;50.844;4.412;2023-07-28T02:51:30;13.38;;;5.95;;
27794;SDS011;15176;50.844;4.412;2023-07-28T02:53:56;9.75;;;6.53;;
27794;SDS011;15176;50.844;4.412;2023-07-28T02:56:22;13.32;;;6.18;;
27794;SDS011;15176;50.844;4.412;2023-07-28T02:58:48;12.98;;;6.45;;
27794;SDS011;15176;50.844;4.412;2023-07-28T03:01:14;7.05;;;4.90;;
27794;SDS011;15176;50.844;4.412;2023-07-28T03:03:39;9.98;;;5.20;;
27794;SDS011;15176;50.844;4.412;2023-07-28T03:06:06;9.30;;;5.25;;
27794;SDS011;15176;50.844;4.412;2023-07-28T03:08:32;8.15;;;5.03;;
27794;SDS011;15176;50.844;4.412;2023-07-28T03:10:58;9.23;;;5.60;;
27794;SDS011;15176;50.844;4.412;2023-07-28T03:13:25;10.10;;;5.20;;
27794;SDS011;15176;50.844;4.412;2023-07-28T03:15:51;7.60;;;4.50;;
27794;SDS011;15176;50.844;4.412;2023-07-28T03:18:16;8.73;;;5.15;;
27794;SDS011;15176;50.844;4.412;2023-07-28T03:20:43;13.32;;;5.45;;
27794;SDS011;15176;50.844;4.412;2023-07-28T03:23:08;7.40;;;5.22;;
27794;SDS011;15176;50.844;4.412;2023-07-28T03:25:34;8.52;;;5.85;;
27794;SDS011;15176;50.844;4.412;2023-07-28T03:27:59;8.48;;;5.75;;
27794;SDS011;15176;50.844;4.412;2023-07-28T03:30:25;10.02;;;5.40;;
27794;SDS011;15176;50.844;4.412;2023-07-28T03:32:51;10.48;;;5.50;;
27794;SDS011;15176;50.844;4.412;2023-07-28T03:35:16;9.65;;;5.25;;
27794;SDS011;15176;50.844;4.412;2023-07-28T03:37:42;7.13;;;4.97;;
27794;SDS011;15176;50.844;4.412;2023-07-28T03:40:08;11.13;;;5.15;;
27794;SDS011;15176;50.844;4.412;2023-07-28T03:42:33;8.00;;;4.88;;
27794;SDS011;15176;50.844;4.412;2023-07-28T03:44:59;10.57;;;4.63;;
27794;SDS011;15176;50.844;4.412;2023-07-28T03:47:25;6.93;;;4.85;;
27794;SDS011;15176;50.844;4.412;2023-07-28T03:49:51;7.18;;;4.93;;
27794;SDS011;15176;50.844;4.412;2023-07-28T03:52:16;8.15;;;4.20;;
27794;SDS011;15176;50.844;4.412;2023-07-28T03:54:42;11.48;;;4.85;;
27794;SDS011;15176;50.844;4.412;2023-07-28T03:57:08;10.23;;;5.68;;
27794;SDS011;15176;50.844;4.412;2023-07-28T03:59:34;6.60;;;4.50;;
27794;SDS011;15176;50.844;4.412;2023-07-28T04:02:00;8.23;;;4.68;;
27794;SDS011;15176;50.844;4.412;2023-07-28T04:04:26;8.93;;;4.88;;
27794;SDS011;15176;50.844;4.412;2023-07-28T04:06:51;7.40;;;4.60;;
27794;SDS011;15176;50.844;4.412;2023-07-28T04:09:20;8.27;;;5.15;;
27794;SDS011;15176;50.844;4.412;2023-07-28T04:11:46;6.72;;;4.47;;
27794;SDS011;15176;50.844;4.412;2023-07-28T04:14:12;6.70;;;3.95;;
27794;SDS011;15176;50.844;4.412;2023-07-28T04:16:38;11.30;;;4.60;;
27794;SDS011;15176;50.844;4.412;2023-07-28T04:19:03;11.02;;;4.53;;
27794;SDS011;15176;50.844;4.412;2023-07-28T04:21:29;8.15;;;4.53;;
27794;SDS011;15176;50.844;4.412;2023-07-28T04:23:55;8.23;;;4.30;;
27794;SDS011;15176;50.844;4.412;2023-07-28T04:26:21;6.53;;;4.00;;
27794;SDS011;15176;50.844;4.412;2023-07-28T04:28:48;7.35;;;3.97;;
27794;SDS011;15176;50.844;4.412;2023-07-28T04:31:15;6.55;;;3.72;;
27794;SDS011;15176;50.844;4.412;2023-07-28T04:33:41;8.15;;;4.10;;
27794;SDS011;15176;50.844;4.412;2023-07-28T04:36:07;10.48;;;3.75;;
27794;SDS011;15176;50.844;4.412;2023-07-28T04:38:33;7.47;;;3.85;;
27794;SDS011;15176;50.844;4.412;2023-07-28T04:40:59;8.52;;;3.78;;
27794;SDS011;15176;50.844;4.412;2023-07-28T04:43:24;6.85;;;3.85;;
27794;SDS011;15176;50.844;4.412;2023-07-28T04:45:50;6.13;;;3.20;;
27794;SDS011;15176;50.844;4.412;2023-07-28T04:48:16;9.68;;;4.00;;
27794;SDS011;15176;50.844;4.412;2023-07-28T04:50:42;5.65;;;3.28;;
27794;SDS011;15176;50.844;4.412;2023-07-28T04:53:07;5.38;;;3.00;;
27794;SDS011;15176;50.844;4.412;2023-07-28T04:55:34;8.60;;;3.00;;
27794;SDS011;15176;50.844;4.412;2023-07-28T04:57:59;5.90;;;2.78;;
27794;SDS011;15176;50.844;4.412;2023-07-28T05:00:25;6.20;;;3.08;;
27794;SDS011;15176;50.844;4.412;2023-07-28T05:02:51;6.05;;;2.63;;
27794;SDS011;15176;50.844;4.412;2023-07-28T05:05:16;6.60;;;3.05;;
27794;SDS011;15176;50.844;4.412;2023-07-28T05:07:42;6.35;;;2.70;;
27794;SDS011;15176;50.844;4.412;2023-07-28T05:10:08;6.68;;;2.83;;
27794;SDS011;15176;50.844;4.412;2023-07-28T05:12:34;5.65;;;2.83;;
27794;SDS011;15176;50.844;4.412;2023-07-28T05:15:00;5.85;;;2.08;;
27794;SDS011;15176;50.844;4.412;2023-07-28T05:17:26;5.28;;;2.80;;
27794;SDS011;15176;50.844;4.412;2023-07-28T05:19:51;8.07;;;2.72;;
27794;SDS011;15176;50.844;4.412;2023-07-28T05:22:17;5.22;;;2.40;;
27794;SDS011;15176;50.844;4.412;2023-07-28T05:24:43;9.10;;;2.60;;
27794;SDS011;15176;50.844;4.412;2023-07-28T05:27:11;5.22;;;2.38;;
27794;SDS011;15176;50.844;4.412;2023-07-28T05:29:37;7.28;;;2.72;;
27794;SDS011;15176;50.844;4.412;2023-07-28T05:32:02;3.92;;;2.40;;
27794;SDS011;15176;50.844;4.412;2023-07-28T05:34:29;4.53;;;2.08;;
27794;SDS011;15176;50.844;4.412;2023-07-28T05:36:54;6.43;;;2.30;;
27794;SDS011;15176;50.844;4.412;2023-07-28T05:39:20;6.90;;;2.50;;
27794;SDS011;15176;50.844;4.412;2023-07-28T05:41:46;6.10;;;2.00;;
27794;SDS011;15176;50.844;4.412;2023-07-28T05:44:11;4.88;;;2.20;;
27794;SDS011;15176;50.844;4.412;2023-07-28T05:46:37;3.50;;;1.88;;
27794;SDS011;15176;50.844;4.412;2023-07-28T05:49:03;3.33;;;1.63;;
27794;SDS011;15176;50.844;4.412;2023-07-28T05:51:29;4.85;;;1.67;;
27794;SDS011;15176;50.844;4.412;2023-07-28T05:53:55;2.28;;;1.27;;
27794;SDS011;15176;50.844;4.412;2023-07-28T05:56:20;1.73;;;1.10;;
27794;SDS011;15176;50.844;4.412;2023-07-28T05:58:46;3.88;;;1.13;;
27794;SDS011;15176;50.844;4.412;2023-07-28T06:01:13;1.77;;;1.00;;
27794;SDS011;15176;50.844;4.412;2023-07-28T06:03:39;2.70;;;1.00;;
27794;SDS011;15176;50.844;4.412;2023-07-28T06:06:05;3.90;;;1.05;;
27794;SDS011;15176;50.844;4.412;2023-07-28T06:08:32;2.45;;;1.20;;
27794;SDS011;15176;50.844;4.412;2023-07-28T06:10:58;3.92;;;1.50;;
27794;SDS011;15176;50.844;4.412;2023-07-28T06:13:24;5.05;;;1.42;;
27794;SDS011;15176;50.844;4.412;2023-07-28T06:15:50;2.72;;;1.40;;
27794;SDS011;15176;50.844;4.412;2023-07-28T06:18:21;3.72;;;1.90;;
27794;SDS011;15176;50.844;4.412;2023-07-28T06:20:47;5.65;;;2.03;;
27794;SDS011;15176;50.844;4.412;2023-07-28T06:23:13;7.47;;;2.00;;
27794;SDS011;15176;50.844;4.412;2023-07-28T06:25:38;5.75;;;2.50;;
27794;SDS011;15176;50.844;4.412;2023-07-28T06:28:08;4.05;;;2.05;;
27794;SDS011;15176;50.844;4.412;2023-07-28T06:30:35;5.32;;;2.30;;
27794;SDS011;15176;50.844;4.412;2023-07-28T06:33:06;4.45;;;2.20;;
27794;SDS011;15176;50.844;4.412;2023-07-28T06:35:32;4.40;;;1.90;;
27794;SDS011;15176;50.844;4.412;2023-07-28T06:37:59;3.30;;;1.80;;
27794;SDS011;15176;50.844;4.412;2023-07-28T06:40:27;4.03;;;1.38;;
27794;SDS011;15176;50.844;4.412;2023-07-28T06:42:53;3.10;;;1.70;;
27794;SDS011;15176;50.844;4.412;2023-07-28T06:45:19;3.58;;;1.90;;
27794;SDS011;15176;50.844;4.412;2023-07-28T06:47:45;5.18;;;2.10;;
27794;SDS011;15176;50.844;4.412;2023-07-28T06:50:11;4.30;;;1.60;;
27794;SDS011;15176;50.844;4.412;2023-07-28T06:52:38;4.85;;;1.35;;
27794;SDS011;15176;50.844;4.412;2023-07-28T06:55:05;2.15;;;1.20;;
27794;SDS011;15176;50.844;4.412;2023-07-28T06:57:31;3.58;;;1.30;;
27794;SDS011;15176;50.844;4.412;2023-07-28T06:59:57;7.15;;;4.07;;
27794;SDS011;15176;50.844;4.412;2023-07-28T07:02:22;3.47;;;1.40;;
27794;SDS011;15176;50.844;4.412;2023-07-28T07:04:48;1.95;;;1.02;;
27794;SDS011;15176;50.844;4.412;2023-07-28T07:07:14;3.40;;;1.73;;
27794;SDS011;15176;50.844;4.412;2023-07-28T07:09:40;3.70;;;2.20;;
27794;SDS011;15176;50.844;4.412;2023-07-28T07:12:07;7.60;;;2.70;;
27794;SDS011;15176;50.844;4.412;2023-07-28T07:14:33;3.00;;;1.55;;
27794;SDS011;15176;50.844;4.412;2023-07-28T07:17:02;2.20;;;0.80;;
27794;SDS011;15176;50.844;4.412;2023-07-28T07:19:28;3.05;;;1.27;;
27794;SDS011;15176;50.844;4.412;2023-07-28T07:21:54;1.20;;;0.77;;
27794;SDS011;15176;50.844;4.412;2023-07-28T07:24:20;3.42;;;1.42;;
27794;SDS011;15176;50.844;4.412;2023-07-28T07:26:46;3.90;;;1.67;;
27794;SDS011;15176;50.844;4.412;2023-07-28T07:29:12;3.78;;;1.23;;
27794;SDS011;15176;50.844;4.412;2023-07-28T07:31:43;2.20;;;0.95;;
27794;SDS011;15176;50.844;4.412;2023-07-28T07:34:09;4.40;;;1.58;;
27794;SDS011;15176;50.844;4.412;2023-07-28T07:36:36;2.85;;;0.95;;
27794;SDS011;15176;50.844;4.412;2023-07-28T07:39:02;1.45;;;0.88;;
27794;SDS011;15176;50.844;4.412;2023-07-28T07:41:27;1.85;;;1.00;;
27794;SDS011;15176;50.844;4.412;2023-07-28T07:43:54;5.10;;;1.50;;
27794;SDS011;15176;50.844;4.412;2023-07-28T07:46:20;4.20;;;2.00;;
27794;SDS011;15176;50.844;4.412;2023-07-28T07:48:46;4.45;;;2.10;;
27794;SDS011;15176;50.844;4.412;2023-07-28T07:51:12;5.10;;;1.90;;
27794;SDS011;15176;50.844;4.412;2023-07-28T07:53:38;4.70;;;1.50;;
27794;SDS011;15176;50.844;4.412;2023-07-28T07:56:04;3.10;;;1.55;;
27794;SDS011;15176;50.844;4.412;2023-07-28T07:58:30;4.47;;;2.15;;
27794;SDS011;15176;50.844;4.412;2023-07-28T08:00:57;5.80;;;2.70;;
27794;SDS011;15176;50.844;4.412;2023-07-28T08:03:23;5.15;;;2.53;;
27794;SDS011;15176;50.844;4.412;2023-07-28T08:05:49;6.80;;;2.20;;
27794;SDS011;15176;50.844;4.412;2023-07-28T08:08:16;5.70;;;2.53;;
27794;SDS011;15176;50.844;4.412;2023-07-28T08:10:42;7.30;;;3.30;;
27794;SDS011;15176;50.844;4.412;2023-07-28T08:13:09;7.78;;;3.35;;
27794;SDS011;15176;50.844;4.412;2023-07-28T08:15:36;3.80;;;1.75;;
27794;SDS011;15176;50.844;4.412;2023-07-28T08:18:05;3.40;;;1.65;;
27794;SDS011;15176;50.844;4.412;2023-07-28T08:20:31;5.10;;;1.73;;
27794;SDS011;15176;50.844;4.412;2023-07-28T08:22:56;9.10;;;2.78;;
27794;SDS011;15176;50.844;4.412;2023-07-28T08:25:22;10.25;;;2.33;;
27794;SDS011;15176;50.844;4.412;2023-07-28T08:27:48;3.03;;;1.42;;
27794;SDS011;15176;50.844;4.412;2023-07-28T08:30:14;6.05;;;3.20;;
27794;SDS011;15176;50.844;4.412;2023-07-28T08:32:43;4.22;;;1.88;;
27794;SDS011;15176;50.844;4.412;2023-07-28T08:35:09;5.38;;;2.30;;
27794;SDS011;15176;50.844;4.412;2023-07-28T08:37:35;6.95;;;2.30;;
27794;SDS011;15176;50.844;4.412;2023-07-28T08:40:01;5.57;;;2.42;;
27794;SDS011;15176;50.844;4.412;2023-07-28T08:42:28;4.50;;;2.58;;
27794;SDS011;15176;50.844;4.412;2023-07-28T08:44:55;4.80;;;2.03;;
27794;SDS011;15176;50.844;4.412;2023-07-28T08:47:21;2.80;;;1.50;;
27794;SDS011;15176;50.844;4.412;2023-07-28T08:49:47;3.83;;;1.23;;
27794;SDS011;15176;50.844;4.412;2023-07-28T08:52:15;5.07;;;1.30;;
27794;SDS011;15176;50.844;4.412;2023-07-28T08:54:41;3.17;;;1.40;;
27794;SDS011;15176;50.844;4.412;2023-07-28T08:57:08;4.03;;;1.63;;
27794;SDS011;15176;50.844;4.412;2023-07-28T08:59:34;4.65;;;1.88;;
27794;SDS011;15176;50.844;4.412;2023-07-28T09:02:02;3.03;;;1.63;;
27794;SDS011;15176;50.844;4.412;2023-07-28T09:04:29;2.80;;;1.25;;
27794;SDS011;15176;50.844;4.412;2023-07-28T09:06:55;2.25;;;0.93;;
27794;SDS011;15176;50.844;4.412;2023-07-28T09:09:21;2.22;;;1.00;;
27794;SDS011;15176;50.844;4.412;2023-07-28T09:11:52;1.88;;;0.93;;
27794;SDS011;15176;50.844;4.412;2023-07-28T09:14:19;2.60;;;0.88;;
27794;SDS011;15176;50.844;4.412;2023-07-28T09:16:46;3.25;;;1.00;;
27794;SDS011;15176;50.844;4.412;2023-07-28T09:19:15;3.15;;;1.00;;
27794;SDS011;15176;50.844;4.412;2023-07-28T09:21:42;1.73;;;0.90;;
27794;SDS011;15176;50.844;4.412;2023-07-28T09:24:11;1.45;;;0.90;;
27794;SDS011;15176;50.844;4.412;2023-07-28T09:29:20;4.20;;;1.10;;
27794;SDS011;15176;50.844;4.412;2023-07-28T09:31:46;3.45;;;0.98;;
27794;SDS011;15176;50.844;4.412;2023-07-28T09:34:22;3.05;;;1.08;;
27794;SDS011;15176;50.844;4.412;2023-07-28T09:36:55;3.25;;;1.27;;
27794;SDS011;15176;50.844;4.412;2023-07-28T09:39:22;3.80;;;1.45;;
27794;SDS011;15176;50.844;4.412;2023-07-28T09:41:48;5.35;;;1.50;;
27794;SDS011;15176;50.844;4.412;2023-07-28T09:44:14;4.45;;;1.40;;
27794;SDS011;15176;50.844;4.412;2023-07-28T09:46:51;5.63;;;1.52;;
27794;SDS011;15176;50.844;4.412;2023-07-28T09:49:20;4.07;;;1.33;;
27794;SDS011;15176;50.844;4.412;2023-07-28T09:51:53;4.30;;;1.50;;
27794;SDS011;15176;50.844;4.412;2023-07-28T09:54:27;3.05;;;1.40;;
27794;SDS011;15176;50.844;4.412;2023-07-28T09:56:58;4.35;;;1.70;;
27794;SDS011;15176;50.844;4.412;2023-07-28T09:59:42;4.95;;;1.60;;
27794;SDS011;15176;50.844;4.412;2023-07-28T10:02:11;3.80;;;1.60;;
27794;SDS011;15176;50.844;4.412;2023-07-28T10:04:37;4.15;;;1.65;;
27794;SDS011;15176;50.844;4.412;2023-07-28T10:07:04;3.25;;;1.90;;
27794;SDS011;15176;50.844;4.412;2023-07-28T10:09:32;3.45;;;1.50;;
27794;SDS011;15176;50.844;4.412;2023-07-28T10:11:59;2.78;;;1.55;;
27794;SDS011;15176;50.844;4.412;2023-07-28T10:14:28;4.00;;;2.28;;
27794;SDS011;15176;50.844;4.412;2023-07-28T10:16:59;7.10;;;2.40;;
27794;SDS011;15176;50.844;4.412;2023-07-28T10:19:27;3.70;;;2.00;;
27794;SDS011;15176;50.844;4.412;2023-07-28T10:22:09;4.93;;;1.60;;
27794;SDS011;15176;50.844;4.412;2023-07-28T10:24:49;4.38;;;2.20;;
27794;SDS011;15176;50.844;4.412;2023-07-28T10:27:36;2.55;;;1.42;;
27794;SDS011;15176;50.844;4.412;2023-07-28T10:30:05;4.65;;;2.33;;
27794;SDS011;15176;50.844;4.412;2023-07-28T10:32:43;5.18;;;2.78;;
27794;SDS011;15176;50.844;4.412;2023-07-28T10:37:45;5.10;;;2.85;;
27794;SDS011;15176;50.844;4.412;2023-07-28T10:43:04;5.05;;;3.10;;
27794;SDS011;15176;50.844;4.412;2023-07-28T10:45:30;5.75;;;3.50;;
27794;SDS011;15176;50.844;4.412;2023-07-28T10:47:57;5.75;;;3.40;;
27794;SDS011;15176;50.844;4.412;2023-07-28T10:50:28;6.82;;;3.67;;
27794;SDS011;15176;50.844;4.412;2023-07-28T10:52:56;7.07;;;3.75;;
27794;SDS011;15176;50.844;4.412;2023-07-28T10:55:23;6.13;;;3.85;;
27794;SDS011;15176;50.844;4.412;2023-07-28T10:57:50;7.13;;;3.40;;
27794;SDS011;15176;50.844;4.412;2023-07-28T11:00:18;6.55;;;4.07;;
27794;SDS011;15176;50.844;4.412;2023-07-28T11:02:46;5.72;;;3.45;;
27794;SDS011;15176;50.844;4.412;2023-07-28T11:05:22;7.07;;;3.60;;
27794;SDS011;15176;50.844;4.412;2023-07-28T11:07:50;5.15;;;3.55;;
27794;SDS011;15176;50.844;4.412;2023-07-28T11:10:19;7.72;;;4.13;;
27794;SDS011;15176;50.844;4.412;2023-07-28T11:12:46;6.13;;;3.97;;
27794;SDS011;15176;50.844;4.412;2023-07-28T11:15:14;6.40;;;4.07;;
27794;SDS011;15176;50.844;4.412;2023-07-28T11:17:41;6.97;;;3.80;;
27794;SDS011;15176;50.844;4.412;2023-07-28T11:22:57;5.60;;;3.72;;
27794;SDS011;15176;50.844;4.412;2023-07-28T11:25:24;5.95;;;3.50;;
27794;SDS011;15176;50.844;4.412;2023-07-28T11:27:51;6.57;;;3.03;;
27794;SDS011;15176;50.844;4.412;2023-07-28T11:30:18;4.55;;;2.80;;
27794;SDS011;15176;50.844;4.412;2023-07-28T11:32:44;6.32;;;2.60;;
27794;SDS011;15176;50.844;4.412;2023-07-28T11:35:12;4.38;;;2.20;;
27794;SDS011;15176;50.844;4.412;2023-07-28T11:37:39;7.78;;;2.38;;
27794;SDS011;15176;50.844;4.412;2023-07-28T11:40:07;4.75;;;2.38;;
27794;SDS011;15176;50.844;4.412;2023-07-28T11:42:54;5.65;;;2.20;;
27794;SDS011;15176;50.844;4.412;2023-07-28T11:45:20;5.15;;;2.30;;
27794;SDS011;15176;50.844;4.412;2023-07-28T11:47:54;3.70;;;2.00;;
27794;SDS011;15176;50.844;4.412;2023-07-28T11:50:29;3.60;;;2.00;;
27794;SDS011;15176;50.844;4.412;2023-07-28T11:52:59;5.95;;;2.53;;
27794;SDS011;15176;50.844;4.412;2023-07-28T11:55:25;5.68;;;2.08;;
27794;SDS011;15176;50.844;4.412;2023-07-28T11:57:52;5.70;;;2.17;;
27794;SDS011;15176;50.844;4.412;2023-07-28T12:00:18;4.68;;;2.10;;
27794;SDS011;15176;50.844;4.412;2023-07-28T12:03:00;4.80;;;2.30;;
27794;SDS011;15176;50.844;4.412;2023-07-28T12:05:37;5.60;;;2.45;;
27794;SDS011;15176;50.844;4.412;2023-07-28T12:08:04;3.70;;;2.17;;
27794;SDS011;15176;50.844;4.412;2023-07-28T12:10:30;7.93;;;2.10;;
27794;SDS011;15176;50.844;4.412;2023-07-28T12:12:56;5.03;;;2.08;;
27794;SDS011;15176;50.844;4.412;2023-07-28T12:15:29;4.80;;;1.85;;
27794;SDS011;15176;50.844;4.412;2023-07-28T12:18:05;2.92;;;1.52;;
27794;SDS011;15176;50.844;4.412;2023-07-28T12:20:45;5.88;;;1.90;;
27794;SDS011;15176;50.844;4.412;2023-07-28T12:23:12;5.13;;;2.13;;
27794;SDS011;15176;50.844;4.412;2023-07-28T12:25:40;4.20;;;1.80;;
27794;SDS011;15176;50.844;4.412;2023-07-28T12:28:06;3.65;;;1.70;;
27794;SDS011;15176;50.844;4.412;2023-07-28T12:30:33;4.55;;;1.55;;
27794;SDS011;15176;50.844;4.412;2023-07-28T12:32:59;3.40;;;1.40;;
27794;SDS011;15176;50.844;4.412;2023-07-28T12:35:27;2.95;;;1.38;;
27794;SDS011;15176;50.844;4.412;2023-07-28T12:37:59;3.33;;;1.45;;
27794;SDS011;15176;50.844;4.412;2023-07-28T12:40:33;4.72;;;1.30;;
27794;SDS011;15176;50.844;4.412;2023-07-28T12:43:00;3.10;;;1.25;;
27794;SDS011;15176;50.844;4.412;2023-07-28T12:45:27;2.72;;;1.27;;
27794;SDS011;15176;50.844;4.412;2023-07-28T12:47:54;4.32;;;1.50;;
27794;SDS011;15176;50.844;4.412;2023-07-28T12:50:20;3.97;;;1.60;;
27794;SDS011;15176;50.844;4.412;2023-07-28T12:52:47;3.17;;;1.40;;
27794;SDS011;15176;50.844;4.412;2023-07-28T12:55:13;4.45;;;1.60;;
27794;SDS011;15176;50.844;4.412;2023-07-28T12:57:40;2.88;;;1.35;;
27794;SDS011;15176;50.844;4.412;2023-07-28T13:00:06;3.30;;;1.40;;
27794;SDS011;15176;50.844;4.412;2023-07-28T13:02:38;3.42;;;1.50;;
27794;SDS011;15176;50.844;4.412;2023-07-28T13:05:05;3.33;;;1.40;;
27794;SDS011;15176;50.844;4.412;2023-07-28T13:07:32;2.35;;;1.20;;
27794;SDS011;15176;50.844;4.412;2023-07-28T13:09:57;3.50;;;1.38;;
27794;SDS011;15176;50.844;4.412;2023-07-28T13:12:23;3.88;;;1.30;;
27794;SDS011;15176;50.844;4.412;2023-07-28T13:14:49;3.75;;;1.40;;
27794;SDS011;15176;50.844;4.412;2023-07-28T13:17:15;2.95;;;1.30;;
27794;SDS011;15176;50.844;4.412;2023-07-28T13:19:41;2.42;;;1.20;;
27794;SDS011;15176;50.844;4.412;2023-07-28T13:22:07;3.95;;;1.55;;
27794;SDS011;15176;50.844;4.412;2023-07-28T13:24:33;2.55;;;1.20;;
27794;SDS011;15176;50.844;4.412;2023-07-28T13:26:58;3.17;;;1.40;;
27794;SDS011;15176;50.844;4.412;2023-07-28T13:29:24;3.22;;;1.50;;
27794;SDS011;15176;50.844;4.412;2023-07-28T13:31:50;4.18;;;1.48;;
27794;SDS011;15176;50.844;4.412;2023-07-28T13:34:15;3.63;;;1.55;;
27794;SDS011;15176;50.844;4.412;2023-07-28T13:36:41;3.08;;;1.10;;
27794;SDS011;15176;50.844;4.412;2023-07-28T13:39:08;4.00;;;1.38;;
27794;SDS011;15176;50.844;4.412;2023-07-28T13:41:35;4.13;;;1.30;;
27794;SDS011;15176;50.844;4.412;2023-07-28T13:44:01;2.85;;;1.27;;
27794;SDS011;15176;50.844;4.412;2023-07-28T13:46:27;3.20;;;1.10;;
27794;SDS011;15176;50.844;4.412;2023-07-28T13:48:53;3.83;;;1.30;;
27794;SDS011;15176;50.844;4.412;2023-07-28T13:51:19;3.42;;;1.45;;
27794;SDS011;15176;50.844;4.412;2023-07-28T13:53:44;3.63;;;1.30;;
27794;SDS011;15176;50.844;4.412;2023-07-28T13:56:11;3.33;;;1.30;;
27794;SDS011;15176;50.844;4.412;2023-07-28T13:58:37;3.70;;;1.38;;
27794;SDS011;15176;50.844;4.412;2023-07-28T14:01:03;3.47;;;1.33;;
27794;SDS011;15176;50.844;4.412;2023-07-28T14:03:28;2.47;;;1.00;;
27794;SDS011;15176;50.844;4.412;2023-07-28T14:05:54;2.47;;;1.02;;
27794;SDS011;15176;50.844;4.412;2023-07-28T14:08:20;3.78;;;1.48;;
27794;SDS011;15176;50.844;4.412;2023-07-28T14:10:46;4.85;;;1.35;;
27794;SDS011;15176;50.844;4.412;2023-07-28T14:13:12;3.42;;;1.10;;
27794;SDS011;15176;50.844;4.412;2023-07-28T14:15:38;4.50;;;1.70;;
27794;SDS011;15176;50.844;4.412;2023-07-28T14:18:04;3.05;;;1.10;;
27794;SDS011;15176;50.844;4.412;2023-07-28T14:20:30;5.68;;;1.33;;
27794;SDS011;15176;50.844;4.412;2023-07-28T14:22:55;4.53;;;1.50;;
27794;SDS011;15176;50.844;4.412;2023-07-28T14:25:28;4.40;;;1.40;;
27794;SDS011;15176;50.844;4.412;2023-07-28T14:27:55;2.42;;;1.00;;
27794;SDS011;15176;50.844;4.412;2023-07-28T14:30:21;2.90;;;1.20;;
27794;SDS011;15176;50.844;4.412;2023-07-28T14:32:46;3.30;;;1.35;;
27794;SDS011;15176;50.844;4.412;2023-07-28T14:35:12;3.10;;;1.10;;
27794;SDS011;15176;50.844;4.412;2023-07-28T14:37:37;3.55;;;1.30;;
27794;SDS011;15176;50.844;4.412;2023-07-28T14:40:03;4.32;;;1.20;;
27794;SDS011;15176;50.844;4.412;2023-07-28T14:42:29;3.15;;;1.20;;
27794;SDS011;15176;50.844;4.412;2023-07-28T14:44:55;3.35;;;1.30;;
27794;SDS011;15176;50.844;4.412;2023-07-28T14:47:21;3.92;;;1.25;;
27794;SDS011;15176;50.844;4.412;2023-07-28T14:49:47;2.72;;;1.13;;
27794;SDS011;15176;50.844;4.412;2023-07-28T14:52:12;4.13;;;1.40;;
27794;SDS011;15176;50.844;4.412;2023-07-28T14:54:38;2.40;;;1.10;;
27794;SDS011;15176;50.844;4.412;2023-07-28T14:57:04;2.75;;;1.13;;